createdAt,value
2017-09-23T00:01:36.227Z,11.63
2017-09-23T00:04:03.860Z,12.47
2017-09-23T00:06:30.837Z,11.80
2017-09-23T00:08:57.741Z,11.30
2017-09-23T00:11:24.717Z,12.70
2017-09-23T00:13:51.610Z,14.43
2017-09-23T00:16:18.501Z,15.13
2017-09-23T00:18:45.461Z,15.00
2017-09-23T00:21:12.356Z,15.43
2017-09-23T00:23:39.253Z,13.60
2017-09-23T00:26:06.911Z,12.83
2017-09-23T00:28:34.633Z,13.90
2017-09-23T00:31:01.593Z,11.67
2017-09-23T00:33:28.479Z,11.50
2017-09-23T00:35:56.096Z,12.40
2017-09-23T00:38:23.111Z,11.90
2017-09-23T00:40:50.082Z,11.60
2017-09-23T00:43:17.007Z,12.23
2017-09-23T00:45:43.965Z,11.13
2017-09-23T00:48:10.912Z,10.67
2017-09-23T00:50:37.876Z,12.40
2017-09-23T00:53:04.899Z,11.30
2017-09-23T00:55:31.782Z,12.17
2017-09-23T00:57:58.780Z,11.20
2017-09-23T01:00:25.764Z,11.03
2017-09-23T01:02:52.685Z,12.77
2017-09-23T01:05:19.592Z,14.23
2017-09-23T01:07:46.589Z,14.03
2017-09-23T01:10:13.614Z,13.77
2017-09-23T01:12:40.526Z,14.43
2017-09-23T01:15:07.408Z,14.87
2017-09-23T01:17:34.357Z,14.37
2017-09-23T01:20:01.267Z,14.40
2017-09-23T01:22:29.034Z,14.17
2017-09-23T01:24:56.001Z,15.20
2017-09-23T01:27:23.017Z,16.10
2017-09-23T01:29:50.041Z,13.97
2017-09-23T01:32:16.964Z,15.27
2017-09-23T01:34:43.832Z,15.27
2017-09-23T01:37:10.769Z,16.17
2017-09-23T01:39:37.629Z,15.57
2017-09-23T01:42:04.556Z,16.07
2017-09-23T01:44:31.432Z,13.33
2017-09-23T01:46:58.308Z,13.87
2017-09-23T01:49:25.280Z,13.00
2017-09-23T01:51:52.199Z,14.13
2017-09-23T01:54:19.781Z,15.20
2017-09-23T01:56:46.710Z,16.43
2017-09-23T01:59:13.585Z,14.30
2017-09-23T02:01:40.541Z,14.40
2017-09-23T02:04:07.508Z,15.53
2017-09-23T02:06:34.379Z,14.20
2017-09-23T02:09:01.310Z,14.53
2017-09-23T02:11:28.315Z,13.50
2017-09-23T02:13:55.247Z,15.47
2017-09-23T02:16:22.133Z,17.90
2017-09-23T02:18:49.109Z,16.20
2017-09-23T02:21:16.016Z,15.60
2017-09-23T02:23:42.906Z,18.83
2017-09-23T02:26:09.840Z,15.37
2017-09-23T02:28:36.805Z,15.87
2017-09-23T02:31:03.757Z,16.13
2017-09-23T02:33:30.654Z,16.17
2017-09-23T02:35:57.526Z,17.00
2017-09-23T02:38:24.505Z,15.37
2017-09-23T02:40:51.483Z,12.57
2017-09-23T02:43:18.804Z,13.73
2017-09-23T02:45:45.743Z,11.63
2017-09-23T02:48:12.699Z,11.13
2017-09-23T02:50:39.574Z,12.43
2017-09-23T02:53:06.525Z,11.87
2017-09-23T02:55:33.413Z,12.10
2017-09-23T02:58:01.030Z,13.63
2017-09-23T03:00:27.969Z,14.57
2017-09-23T03:02:54.849Z,13.30
2017-09-23T03:05:21.781Z,14.30
2017-09-23T03:07:48.646Z,15.00
2017-09-23T03:10:16.350Z,15.53
2017-09-23T03:12:43.330Z,15.17
2017-09-23T03:15:10.201Z,16.70
2017-09-23T03:17:37.139Z,18.53
2017-09-23T03:20:03.992Z,19.43
2017-09-23T03:22:31.011Z,16.43
2017-09-23T03:24:57.880Z,17.07
2017-09-23T03:27:24.796Z,17.27
2017-09-23T03:29:51.745Z,15.43
2017-09-23T03:32:18.716Z,14.57
2017-09-23T03:34:45.738Z,14.30
2017-09-23T03:37:12.659Z,14.93
2017-09-23T03:39:39.634Z,13.37
2017-09-23T03:42:06.607Z,15.50
2017-09-23T03:44:34.211Z,16.87
2017-09-23T03:47:01.186Z,15.67
2017-09-23T03:49:28.148Z,16.77
2017-09-23T03:51:55.123Z,14.90
2017-09-23T03:54:22.003Z,15.80
2017-09-23T03:56:48.905Z,15.40
2017-09-23T03:59:15.900Z,16.20
2017-09-23T04:01:42.771Z,16.53
2017-09-23T04:04:09.639Z,16.60
2017-09-23T04:06:37.447Z,15.90
2017-09-23T04:09:04.355Z,16.83
2017-09-23T04:11:32.007Z,16.50
2017-09-23T04:13:59.001Z,15.10
2017-09-23T04:16:25.906Z,17.80
2017-09-23T04:18:53.562Z,17.60
2017-09-23T04:21:20.492Z,17.30
2017-09-23T04:23:47.413Z,18.43
2017-09-23T04:26:18.784Z,17.00
2017-09-23T04:28:45.980Z,17.90
2017-09-23T04:31:12.861Z,20.33
2017-09-23T04:33:39.747Z,18.80
2017-09-23T04:36:06.697Z,19.50
2017-09-23T04:38:33.652Z,18.60
2017-09-23T04:41:00.531Z,17.90
2017-09-23T04:43:27.471Z,18.03
2017-09-23T04:45:54.370Z,17.60
2017-09-23T04:48:21.249Z,18.43
2017-09-23T04:50:48.178Z,18.60
2017-09-23T04:53:15.063Z,16.83
2017-09-23T04:55:42.032Z,17.67
2017-09-23T04:58:08.916Z,15.13
2017-09-23T05:00:35.864Z,12.73
2017-09-23T05:03:03.152Z,14.03
2017-09-23T05:05:30.454Z,14.93
2017-09-23T05:07:58.405Z,15.63
2017-09-23T05:10:27.545Z,14.60
2017-09-23T05:12:57.014Z,14.77
2017-09-23T05:15:27.273Z,14.40
2017-09-23T05:17:55.884Z,16.73
2017-09-23T05:20:24.620Z,16.20
2017-09-23T05:22:51.797Z,16.30
2017-09-23T05:25:19.272Z,15.73
2017-09-23T05:27:46.477Z,17.00
2017-09-23T05:30:14.651Z,15.73
2017-09-23T05:32:41.739Z,21.13
2017-09-23T05:35:09.426Z,17.47
2017-09-23T05:37:36.505Z,19.33
2017-09-23T05:40:03.403Z,19.87
2017-09-23T05:42:33.118Z,19.43
2017-09-23T05:45:03.223Z,17.77
2017-09-23T05:47:31.440Z,20.63
2017-09-23T05:49:58.784Z,19.13
2017-09-23T05:52:27.938Z,20.40
2017-09-23T05:54:54.962Z,22.70
2017-09-23T05:57:21.861Z,18.63
2017-09-23T05:59:48.832Z,16.73
2017-09-23T06:02:15.794Z,16.37
2017-09-23T06:04:42.960Z,18.10
2017-09-23T06:07:09.849Z,19.00
2017-09-23T06:09:36.809Z,20.50
2017-09-23T06:12:03.778Z,19.63
2017-09-23T06:14:30.745Z,19.50
2017-09-23T06:16:58.248Z,19.23
2017-09-23T06:19:27.093Z,21.00
2017-09-23T06:21:54.829Z,23.10
2017-09-23T06:24:21.961Z,21.87
2017-09-23T06:26:48.860Z,24.20
2017-09-23T06:29:15.905Z,27.80
2017-09-23T06:31:42.855Z,30.17
2017-09-23T06:34:09.882Z,28.87
2017-09-23T06:36:36.847Z,29.50
2017-09-23T06:39:03.870Z,32.17
2017-09-23T06:41:30.760Z,32.73
2017-09-23T06:43:57.703Z,33.40
2017-09-23T06:46:24.736Z,31.50
2017-09-23T06:48:51.679Z,30.73
2017-09-23T06:51:18.584Z,31.60
2017-09-23T06:53:45.613Z,30.30
2017-09-23T06:56:13.284Z,27.37
2017-09-23T06:58:40.316Z,25.13
2017-09-23T07:01:07.989Z,20.40
2017-09-23T07:03:35.637Z,20.63
2017-09-23T07:06:02.599Z,18.90
2017-09-23T07:08:30.223Z,18.10
2017-09-23T07:10:57.207Z,19.00
2017-09-23T07:13:24.892Z,20.57
2017-09-23T07:15:51.800Z,24.53
2017-09-23T07:18:18.761Z,26.83
2017-09-23T07:20:45.732Z,34.60
2017-09-23T07:23:12.638Z,32.83
2017-09-23T07:25:40.373Z,34.40
2017-09-23T07:28:07.334Z,37.07
2017-09-23T07:30:34.299Z,33.07
2017-09-23T07:33:02.028Z,31.40
2017-09-23T07:35:29.007Z,32.17
2017-09-23T07:37:56.659Z,31.23
2017-09-23T07:40:23.648Z,27.70
2017-09-23T07:42:52.603Z,30.23
2017-09-23T07:45:20.302Z,31.57
2017-09-23T07:47:47.172Z,31.00
2017-09-23T07:50:14.120Z,29.13
2017-09-23T07:52:40.977Z,26.07
2017-09-23T07:55:07.849Z,26.80
2017-09-23T07:57:34.862Z,27.47
2017-09-23T08:00:01.788Z,28.40
2017-09-23T08:02:28.737Z,30.37
2017-09-23T08:04:55.604Z,28.50
2017-09-23T08:07:22.527Z,27.53
2017-09-23T08:09:52.156Z,25.87
2017-09-23T08:12:19.146Z,25.53
2017-09-23T08:14:47.169Z,25.10
2017-09-23T08:17:29.232Z,26.37
2017-09-23T08:20:00.129Z,29.87
2017-09-23T08:25:18.979Z,27.40
2017-09-23T08:27:45.938Z,29.17
2017-09-23T08:30:21.319Z,31.03
2017-09-23T08:32:58.258Z,28.43
2017-09-23T08:35:32.929Z,29.93
2017-09-23T08:38:08.432Z,27.13
2017-09-23T08:40:38.368Z,28.47
2017-09-23T08:43:08.040Z,29.00
2017-09-23T08:45:35.969Z,25.83
2017-09-23T08:48:10.838Z,24.77
2017-09-23T08:50:45.766Z,23.20
2017-09-23T08:53:20.135Z,24.00
2017-09-23T08:55:53.781Z,24.90
2017-09-23T08:58:28.894Z,23.10
2017-09-23T09:00:59.356Z,25.23
2017-09-23T09:03:28.203Z,25.63
2017-09-23T09:05:59.408Z,29.20
2017-09-23T09:08:37.732Z,23.37
2017-09-23T09:11:20.709Z,27.23
2017-09-23T09:13:58.650Z,26.60
2017-09-23T09:16:30.761Z,26.70
2017-09-23T09:19:08.690Z,28.87
2017-09-23T09:21:43.092Z,26.13
2017-09-23T09:24:17.884Z,23.83
2017-09-23T09:26:52.703Z,24.23
2017-09-23T09:29:21.208Z,28.70
2017-09-23T09:31:50.547Z,25.40
2017-09-23T09:34:19.037Z,23.73
2017-09-23T09:36:49.862Z,26.00
2017-09-23T09:39:20.298Z,28.43
2017-09-23T09:41:50.200Z,29.17
2017-09-23T09:44:21.040Z,27.97
2017-09-23T09:46:53.207Z,30.30
2017-09-23T09:49:24.205Z,27.20
2017-09-23T09:51:55.654Z,31.33
2017-09-23T09:54:25.524Z,26.33
2017-09-23T09:56:54.139Z,29.50
2017-09-23T09:59:21.174Z,30.17
2017-09-23T10:01:49.232Z,29.30
2017-09-23T10:04:19.029Z,27.50
2017-09-23T10:06:47.115Z,26.67
2017-09-23T10:09:15.496Z,26.00
2017-09-23T10:11:44.629Z,25.20
2017-09-23T10:14:12.796Z,27.27
2017-09-23T10:16:40.796Z,24.40
2017-09-23T10:19:08.706Z,25.87
2017-09-23T10:21:36.920Z,23.97
2017-09-23T10:24:03.850Z,23.97
2017-09-23T10:26:33.234Z,26.80
2017-09-23T10:29:02.541Z,23.47
2017-09-23T10:31:32.183Z,25.80
2017-09-23T10:34:01.351Z,24.50
2017-09-23T10:36:30.406Z,27.00
2017-09-23T10:38:59.937Z,24.23
2017-09-23T10:41:27.396Z,26.20
2017-09-23T10:43:55.388Z,26.37
2017-09-23T10:46:25.387Z,26.00
2017-09-23T10:48:52.768Z,27.07
2017-09-23T10:51:20.569Z,23.97
2017-09-23T10:53:47.449Z,26.47
2017-09-23T10:56:14.384Z,26.13
2017-09-23T10:58:42.373Z,26.53
2017-09-23T11:01:09.263Z,22.50
2017-09-23T11:03:36.233Z,24.97
2017-09-23T11:06:04.721Z,26.10
2017-09-23T11:08:32.376Z,23.43
2017-09-23T11:10:59.307Z,26.00
2017-09-23T11:13:26.445Z,26.07
2017-09-23T11:15:53.360Z,25.70
2017-09-23T11:18:21.022Z,23.30
2017-09-23T11:20:48.736Z,23.50
2017-09-23T11:23:28.602Z,27.03
2017-09-23T11:26:07.120Z,26.07
2017-09-23T11:28:41.360Z,24.43
2017-09-23T11:31:21.097Z,27.43
2017-09-23T11:33:50.455Z,26.57
2017-09-23T11:36:20.179Z,28.50
2017-09-23T11:38:52.902Z,27.83
2017-09-23T11:41:31.511Z,27.17
2017-09-23T11:44:08.502Z,22.53
2017-09-23T11:46:45.902Z,24.80
2017-09-23T11:49:15.963Z,25.77
2017-09-23T11:51:54.967Z,26.67
2017-09-23T11:54:22.478Z,26.07
2017-09-23T11:56:58.714Z,21.70
2017-09-23T11:59:27.904Z,23.50
2017-09-23T12:01:56.872Z,24.97
2017-09-23T12:04:24.876Z,21.07
2017-09-23T12:06:53.312Z,23.83
2017-09-23T12:09:22.704Z,26.37
2017-09-23T12:11:49.587Z,21.70
2017-09-23T12:14:23.477Z,21.33
2017-09-23T12:19:36.403Z,21.23
2017-09-23T12:22:03.379Z,21.30
2017-09-23T12:24:30.996Z,23.80
2017-09-23T12:26:57.844Z,23.60
2017-09-23T12:29:24.769Z,22.00
2017-09-23T12:31:52.334Z,23.20
2017-09-23T12:34:19.413Z,20.40
2017-09-23T12:36:46.624Z,20.63
2017-09-23T12:39:13.501Z,24.27
2017-09-23T12:41:42.953Z,22.23
2017-09-23T12:44:12.549Z,23.40
2017-09-23T12:46:41.885Z,22.27
2017-09-23T12:49:08.852Z,24.67
2017-09-23T12:51:35.904Z,23.00
2017-09-23T12:54:02.780Z,19.67
2017-09-23T12:56:30.826Z,18.53
2017-09-23T12:58:58.061Z,17.00
2017-09-23T13:01:24.957Z,21.07
2017-09-23T13:03:52.584Z,20.27
2017-09-23T13:06:19.524Z,20.70
2017-09-23T13:08:46.468Z,19.70
2017-09-23T13:11:16.360Z,17.83
2017-09-23T13:13:45.048Z,19.20
2017-09-23T13:16:12.909Z,17.03
2017-09-23T13:18:39.918Z,17.30
2017-09-23T13:21:06.844Z,18.67
2017-09-23T13:23:33.784Z,16.73
2017-09-23T13:26:00.790Z,14.97
2017-09-23T13:28:27.648Z,16.67
2017-09-23T13:30:55.196Z,15.63
2017-09-23T13:33:22.068Z,17.60
2017-09-23T13:35:48.943Z,15.27
2017-09-23T13:38:16.728Z,16.23
2017-09-23T13:40:51.156Z,18.53
2017-09-23T13:43:18.026Z,15.50
2017-09-23T13:45:44.952Z,19.10
2017-09-23T13:48:12.560Z,16.27
2017-09-23T13:50:39.512Z,17.27
2017-09-23T13:53:06.468Z,16.60
2017-09-23T13:55:33.495Z,16.90
2017-09-23T13:58:00.480Z,17.50
2017-09-23T14:00:27.421Z,12.97
2017-09-23T14:02:54.652Z,19.03
2017-09-23T14:05:21.592Z,24.20
2017-09-23T14:07:48.491Z,13.70
2017-09-23T14:10:16.929Z,16.80
2017-09-23T14:12:43.824Z,17.20
2017-09-23T14:15:24.608Z,17.23
2017-09-23T14:17:53.240Z,19.47
2017-09-23T14:20:23.780Z,18.93
2017-09-23T14:22:51.600Z,18.00
2017-09-23T14:25:18.500Z,18.33
2017-09-23T14:27:45.525Z,18.50
2017-09-23T14:30:12.489Z,17.83
2017-09-23T14:32:39.399Z,19.20
2017-09-23T14:35:06.412Z,21.90
2017-09-23T14:37:34.436Z,21.03
2017-09-23T14:40:01.402Z,22.47
2017-09-23T14:42:28.306Z,19.87
2017-09-23T14:44:55.780Z,17.53
2017-09-23T14:47:22.796Z,19.20
2017-09-23T14:49:49.685Z,18.73
2017-09-23T14:52:16.573Z,17.80
2017-09-23T14:54:43.506Z,19.50
2017-09-23T14:57:11.221Z,17.93
2017-09-23T14:59:38.208Z,16.80
2017-09-23T15:04:50.308Z,19.17
2017-09-23T15:07:20.740Z,17.30
2017-09-23T15:09:52.617Z,16.37
2017-09-23T15:12:19.556Z,15.27
2017-09-23T15:14:48.677Z,15.93
2017-09-23T15:17:18.581Z,14.77
2017-09-23T15:19:47.276Z,14.37
2017-09-23T15:22:16.649Z,15.80
2017-09-23T15:24:43.621Z,15.77
2017-09-23T15:27:10.541Z,19.13
2017-09-23T15:29:38.683Z,17.80
2017-09-23T15:32:06.387Z,19.70
2017-09-23T15:34:33.273Z,19.53
2017-09-23T15:37:01.064Z,19.23
2017-09-23T15:39:27.946Z,17.77
2017-09-23T15:41:54.810Z,20.20
2017-09-23T15:44:21.782Z,19.00
2017-09-23T15:46:48.667Z,19.73
2017-09-23T15:49:15.557Z,19.50
2017-09-23T15:51:43.249Z,19.80
2017-09-23T15:54:10.129Z,22.27
2017-09-23T15:56:37.012Z,23.07
2017-09-23T15:59:04.688Z,19.47
2017-09-23T16:01:31.549Z,20.17
2017-09-23T16:03:59.280Z,20.43
2017-09-23T16:06:26.873Z,17.80
2017-09-23T16:08:53.816Z,20.50
2017-09-23T16:11:20.709Z,23.80
2017-09-23T16:13:47.637Z,22.20
2017-09-23T16:16:14.600Z,20.43
2017-09-23T16:18:41.541Z,18.60
2017-09-23T16:21:08.497Z,20.33
2017-09-23T16:23:35.360Z,23.50
2017-09-23T16:26:03.068Z,23.87
2017-09-23T16:28:29.948Z,22.53
2017-09-23T16:30:57.036Z,22.97
2017-09-23T16:33:24.288Z,24.00
2017-09-23T16:35:51.977Z,25.47
2017-09-23T16:38:19.150Z,24.23
2017-09-23T16:40:46.053Z,21.43
2017-09-23T16:43:13.596Z,21.17
2017-09-23T16:45:40.545Z,22.70
2017-09-23T16:48:08.276Z,22.70
2017-09-23T16:50:35.160Z,22.90
2017-09-23T16:53:02.059Z,22.80
2017-09-23T16:55:29.154Z,22.33
2017-09-23T16:57:56.938Z,22.40
2017-09-23T17:00:23.865Z,22.30
2017-09-23T17:02:51.530Z,21.77
2017-09-23T17:05:19.283Z,23.50
2017-09-23T17:07:46.972Z,22.03
2017-09-23T17:10:13.874Z,20.70
2017-09-23T17:12:40.808Z,19.70
2017-09-23T17:15:07.704Z,21.53
2017-09-23T17:17:34.595Z,19.30
2017-09-23T17:20:01.576Z,22.50
2017-09-23T17:22:29.273Z,19.03
2017-09-23T17:24:56.177Z,22.00
2017-09-23T17:27:23.703Z,20.80
2017-09-23T17:29:50.666Z,21.30
2017-09-23T17:32:17.575Z,20.60
2017-09-23T17:34:44.631Z,21.00
2017-09-23T17:37:11.574Z,21.67
2017-09-23T17:39:38.530Z,22.50
2017-09-23T17:42:05.539Z,21.23
2017-09-23T17:44:32.459Z,19.93
2017-09-23T17:47:00.158Z,18.70
2017-09-23T17:49:27.180Z,20.30
2017-09-23T17:51:54.808Z,21.87
2017-09-23T17:54:21.828Z,21.37
2017-09-23T17:56:48.739Z,22.27
2017-09-23T17:59:16.440Z,23.73
2017-09-23T18:01:43.356Z,27.00
2017-09-23T18:04:11.046Z,33.33
2017-09-23T18:06:38.363Z,45.87
2017-09-23T18:09:05.347Z,54.10
2017-09-23T18:11:32.356Z,48.50
2017-09-23T18:13:59.343Z,44.70
2017-09-23T18:16:26.254Z,39.50
2017-09-23T18:18:53.155Z,39.20
2017-09-23T18:21:20.198Z,42.13
2017-09-23T18:23:47.088Z,35.90
2017-09-23T18:26:14.056Z,28.63
2017-09-23T18:28:40.970Z,26.40
2017-09-23T18:31:08.012Z,23.77
2017-09-23T18:33:35.561Z,21.50
2017-09-23T18:36:02.576Z,23.47
2017-09-23T18:38:29.490Z,23.70
2017-09-23T18:40:56.461Z,22.87
2017-09-23T18:43:23.448Z,25.10
2017-09-23T18:45:50.442Z,23.53
2017-09-23T18:48:17.466Z,26.03
2017-09-23T18:50:44.480Z,27.50
2017-09-23T18:53:11.418Z,25.10
2017-09-23T18:55:38.452Z,24.30
2017-09-23T18:58:05.404Z,24.70
2017-09-23T19:00:32.402Z,25.20
2017-09-23T19:02:59.637Z,25.57
2017-09-23T19:05:40.655Z,24.40
2017-09-23T19:08:08.464Z,24.20
2017-09-23T19:10:38.289Z,25.10
2017-09-23T19:13:05.231Z,25.53
2017-09-23T19:15:33.282Z,26.37
2017-09-23T19:18:00.268Z,26.57
2017-09-23T19:20:27.205Z,27.63
2017-09-23T19:22:54.592Z,26.17
2017-09-23T19:25:22.660Z,23.97
2017-09-23T19:27:50.325Z,24.43
2017-09-23T19:30:18.107Z,23.73
2017-09-23T19:32:45.066Z,26.90
2017-09-23T19:35:12.047Z,24.70
2017-09-23T19:37:42.087Z,29.97
2017-09-23T19:40:09.839Z,29.77
2017-09-23T19:42:36.787Z,29.30
2017-09-23T19:45:03.801Z,29.50
2017-09-23T19:47:30.816Z,27.70
2017-09-23T19:50:12.028Z,31.50
2017-09-23T19:52:42.089Z,29.67
2017-09-23T19:55:13.124Z,32.43
2017-09-23T19:57:40.074Z,31.10
2017-09-23T20:00:07.850Z,31.67
2017-09-23T20:02:35.072Z,31.87
2017-09-23T20:05:02.080Z,32.67
2017-09-23T20:07:29.846Z,31.87
2017-09-23T20:09:56.871Z,33.90
2017-09-23T20:12:23.823Z,33.63
2017-09-23T20:14:51.852Z,34.80
2017-09-23T20:17:24.652Z,35.87
2017-09-23T20:19:51.609Z,33.80
2017-09-23T20:22:18.534Z,34.97
2017-09-23T20:24:46.195Z,32.00
2017-09-23T20:27:13.236Z,34.77
2017-09-23T20:29:41.407Z,31.07
2017-09-23T20:32:11.637Z,33.90
2017-09-23T20:34:38.552Z,34.57
2017-09-23T20:37:05.573Z,32.70
2017-09-23T20:39:36.581Z,33.40
2017-09-23T20:42:03.608Z,34.13
2017-09-23T20:44:36.197Z,33.87
2017-09-23T20:47:03.244Z,31.93
2017-09-23T20:49:30.175Z,39.43
2017-09-23T20:51:57.173Z,33.30
2017-09-23T20:54:24.237Z,36.73
2017-09-23T20:56:51.369Z,33.97
2017-09-23T20:59:18.250Z,37.37
2017-09-23T21:01:45.223Z,36.57
2017-09-23T21:04:14.808Z,32.77
2017-09-23T21:06:45.233Z,33.27
2017-09-23T21:09:15.109Z,33.93
2017-09-23T21:11:43.058Z,31.50
2017-09-23T21:14:13.793Z,32.63
2017-09-23T21:16:43.075Z,34.80
2017-09-23T21:19:10.207Z,37.47
2017-09-23T21:21:38.017Z,34.57
2017-09-23T21:24:08.877Z,38.50
2017-09-23T21:26:35.955Z,34.07
2017-09-23T21:29:03.031Z,37.47
2017-09-23T21:31:29.989Z,35.30
2017-09-23T21:34:00.723Z,35.37
2017-09-23T21:36:29.057Z,36.13
2017-09-23T21:38:57.992Z,34.17
2017-09-23T21:41:25.532Z,35.93
2017-09-23T21:43:52.840Z,38.67
2017-09-23T21:46:19.909Z,36.47
2017-09-23T21:48:46.952Z,32.53
2017-09-23T21:51:13.909Z,31.60
2017-09-23T21:53:40.909Z,37.80
2017-09-23T21:56:07.992Z,34.97
2017-09-23T21:58:34.948Z,39.10
2017-09-23T22:01:01.963Z,36.40
2017-09-23T22:03:28.919Z,37.50
2017-09-23T22:05:55.893Z,37.10
2017-09-23T22:08:22.892Z,39.87
2017-09-23T22:10:49.956Z,35.27
2017-09-23T22:13:16.967Z,33.20
2017-09-23T22:15:43.894Z,35.80
2017-09-23T22:18:10.946Z,37.53
2017-09-23T22:20:37.911Z,37.80
2017-09-23T22:23:04.916Z,35.47
2017-09-23T22:25:31.908Z,32.97
2017-09-23T22:27:58.913Z,31.90
2017-09-23T22:30:25.858Z,33.07
2017-09-23T22:32:53.132Z,35.27
2017-09-23T22:35:20.092Z,34.03
2017-09-23T22:37:47.892Z,35.37
2017-09-23T22:40:14.886Z,34.23
2017-09-23T22:42:41.961Z,44.50
2017-09-23T22:45:08.958Z,38.90
2017-09-23T22:47:35.923Z,41.73
2017-09-23T22:50:02.846Z,40.10
2017-09-23T22:52:29.868Z,39.57
2017-09-23T22:54:56.945Z,40.13
2017-09-23T22:57:34.365Z,36.87
2017-09-23T23:00:01.665Z,38.93
2017-09-23T23:02:28.583Z,37.57
2017-09-23T23:04:56.441Z,39.10
2017-09-23T23:07:24.183Z,37.50
2017-09-23T23:09:51.100Z,40.10
2017-09-23T23:12:18.058Z,40.50
2017-09-23T23:14:45.308Z,38.57
2017-09-23T23:17:12.318Z,36.20
2017-09-23T23:19:40.075Z,37.20
2017-09-23T23:22:07.045Z,40.70
2017-09-23T23:24:33.994Z,40.03
2017-09-23T23:27:01.004Z,38.80
2017-09-23T23:29:27.913Z,50.30
2017-09-23T23:31:54.945Z,38.50
2017-09-23T23:34:21.898Z,41.80
2017-09-23T23:36:49.173Z,47.53
2017-09-23T23:39:16.427Z,46.20
2017-09-23T23:41:43.589Z,49.20
2017-09-23T23:44:10.767Z,49.80
2017-09-23T23:46:37.745Z,46.97
2017-09-23T23:49:04.668Z,48.17
2017-09-23T23:51:32.422Z,50.60
2017-09-23T23:54:00.123Z,49.60
2017-09-23T23:56:27.222Z,46.10
2017-09-23T23:58:54.338Z,47.70
